Airfield :







YOU CAN JOIN US ON...

 
LOGIN :

Register | Disclaimer

   EN    FR    IT 

 









Legend :    VFR   Marginal VFR   IFR   Intensive IFR   Very Intensive IFR
Visi :
Ceiling :
>= 8 km
>= 3000ft
5 to 8 km
1000 to 3000 ft
1500m to 5 km
500 to 1000 ft
800 to 1500m
200 to 500 ft
< 800m
< 200 ft
Symbols :   Thunderstorms  Fog  Heavy snow  Heavy precipitations  Wind > 20 kt






- Airport Elevation : 550 ft
- IATA code : YOY


CYOY - C J.H.L.(Joe) Lecomte) Heliport

CURRENT METAR :
  • 241100Z AUTO 00000KT 6SM OVC024 M06/M07 A3042 RMK SLP311

EXPIRED METARs :
  • 241000Z AUTO 34002KT 4SM BKN024 M07/M07 A3040 RMK SLP306
  • 240900Z AUTO 00000KT 3SM OVC024 M04/M05 A3039 RMK SLP304
  • 240853Z AUTO 00000KT 3SM OVC024 M04/M05 A3039

TAF TAF CYOY
Valid from the 24 at 00:00 until the 24 at 12:00 UTC


232330Z 2400/2412 VRB03KT P6SM BKN020 OVC030
TEMPO 2400/2405 SCT020 BKN030 BKN120
FM240500 VRB03KT P6SM FEW015 SCT200 RMK FCST BASED ON AUTO OBS. NXT FCST BY 240600Z



MET'MAP, your aeronautical weather chart ! - Copyright ORBIFLY December 2007 - Disclaimer

ORBIFLY MET'MAP TEAM :

Programming & Development : Alexandra Zaïnal
Concept & original design : Baudouin d'Aumeries
Assistance for programming : Marc-Olivier Méhu
Technical & hardware support : Manuel Goepfert

Contact : metmap@orbifly.com




SOURCES & CREDITS :

   NOAA